Flight Track Log - Related Links

Times and Time Zones

All times are in EDT time to prevent confusion due to time zone crossing. See the LXJ541 flight status page for this flight to view local times or setup timezone preferences in your user account.


Time Position Orientation Groundspeed Altitude Reporting Facility
EDT Latitude Longitude Course Direction KTS MPH feet Rate Location/Type
Sun 03:58:24 PM 41.2139 -70.2436 264° West 256 295 5,700  Level Boston Center
Sun 03:59:24 PM 41.2833 -70.2689 345° North 192 221 8,400 2,500 Climbing Boston Center
Sun 04:00:24 PM 41.3203 -70.3478 302° West 237 273 10,700 2,950 Climbing Boston Center
Sun 04:01:24 PM 41.2933 -70.4731 254° West 277 319 14,300 3,500 Climbing Boston Center
Sun 04:02:00 PM 41.3089 -70.9313 252° West  Level FlightAware Approximate
Sun 04:02:24 PM 41.2597 -70.5844 248° West 314 361 17,700  Level Boston Center
Sun 04:03:24 PM 41.2203 -70.7319 250° West 360 414 21,400 3,200 Climbing Boston Center
Sun 04:04:24 PM 41.1828 -70.8681 250° West 377 434 24,100 2,500 Climbing Boston Center
Sun 04:05:24 PM 41.1450 -71.0067 250° West 390 449 26,400 2,150 Climbing Boston Center
Sun 04:06:24 PM 41.1050 -71.1481 249° West 409 471 28,400 1,850 Climbing Boston Center
Sun 04:07:24 PM 41.0628 -71.2978 250° West 421 484 30,100 1,750 Climbing Boston Center
Sun 04:08:24 PM 41.0247 -71.4469 251° West 431 496 31,900 1,750 Climbing Boston Center
Sun 04:09:24 PM 40.9739 -71.5878 244° Southwest 423 487 33,600 1,700 Climbing Boston Center
Sun 04:10:24 PM 40.8997 -71.7181 233° Southwest 434 499 35,300 1,850 Climbing Boston Center
Sun 04:11:24 PM 40.8192 -71.8367 228° Southwest 441 507 37,300 1,700 Climbing Boston Center
Sun 04:12:24 PM 40.7444 -71.9333 224° Southwest 435 501 38,700 1,250 Climbing Boston Center
Sun 04:13:24 PM 40.6639 -72.0433 226° Southwest 429 494 39,800 1,050 Climbing Boston Center
Sun 04:14:24 PM 40.5869 -72.1614 229° Southwest 429 494 40,800 900 Climbing Boston Center
Sun 04:15:24 PM 40.5039 -72.2736 226° Southwest 434 499 41,600 850 Climbing Boston Center
Sun 04:16:24 PM 40.4247 -72.3883 228° Southwest 429 494 42,500 636 Climbing Boston Center
Sun 04:17:36 PM 40.3311 -72.5272 229° Southwest 424 488 43,000 417 Climbing Boston Center
Sun 04:18:48 PM 40.2497 -72.6439 228° Southwest 426 490 43,500 455 Climbing Boston Center
Sun 04:19:48 PM 40.1450 -72.7983 228° Southwest 435 501 44,000 429 Climbing Boston Center
Sun 04:21:50 PM 39.9861 -73.0300 228° Southwest 411 473 44,800 333 Climbing Washington Center
Sun 04:22:48 PM 39.9031 -73.1492 228° Southwest 457 526 45,000 102 Climbing Washington Center
Sun 04:23:48 PM 39.8181 -73.2656 226° Southwest 449 517 45,000  Level Washington Center
Sun 04:24:49 PM 39.7369 -73.3842 228° Southwest 441 507 45,000  Level Washington Center
Sun 04:25:50 PM 39.6575 -73.4864 225° Southwest 454 522 45,000  Level Washington Center
Sun 04:26:48 PM 39.5739 -73.6019 227° Southwest 449 517 45,000  Level Washington Center
Sun 04:27:49 PM 39.4906 -73.7200 228° Southwest 449 517 45,000  Level Washington Center
Sun 04:28:49 PM 39.4089 -73.8375 228° Southwest 449 517 45,000  Level Washington Center
Sun 04:29:50 PM 39.3231 -73.9497 225° Southwest 449 517 45,000  Level Washington Center
Sun 04:30:48 PM 39.2350 -74.0722 227° Southwest 449 517 45,000  Level Washington Center
Sun 04:31:49 PM 39.1531 -74.1836 227° Southwest 449 517 45,000  Level Washington Center
Sun 04:32:50 PM 39.0667 -74.3031 227° Southwest 449 517 45,000  Level Washington Center
Sun 04:33:47 PM 38.9803 -74.4194 226° Southwest 449 517 45,000  Level Washington Center
Sun 04:34:48 PM 38.8939 -74.5381 227° Southwest 449 517 45,000  Level Washington Center
Sun 04:35:49 PM 38.8117 -74.6511 227° Southwest 449 517 45,000  Level Washington Center
Sun 04:36:49 PM 38.7247 -74.7642 225° Southwest 449 517 45,000  Level Washington Center
Sun 04:37:50 PM 38.6294 -74.8608 218° Southwest 449 517 45,000  Level Washington Center
Sun 04:38:50 PM 38.5364 -74.9572 219° Southwest 442 509 45,000  Level Washington Center
Sun 04:39:48 PM 38.4261 -75.0431 211° Southwest 447 514 45,000  Level Washington Center
Sun 04:40:49 PM 38.3181 -75.1047 204° Southwest 442 509 45,000  Level Washington Center
Sun 04:41:49 PM 38.1994 -75.1928 210° Southwest 442 509 45,000  Level Washington Center
Sun 04:42:49 PM 38.0892 -75.2647 207° Southwest 442 509 45,000  Level Washington Center
Sun 04:43:50 PM 37.9789 -75.3336 206° Southwest 447 514 45,000  Level Washington Center
Sun 04:44:48 PM 37.8706 -75.4025 207° Southwest 447 514 45,000  Level Washington Center
Sun 04:45:49 PM 37.7622 -75.4761 208° Southwest 447 514 45,000  Level Washington Center
Sun 04:46:50 PM 37.6456 -75.5236 198° South 447 514 45,000  Level Washington Center
Sun 04:47:50 PM 37.5244 -75.5578 193° South 447 514 45,000  Level Washington Center
Sun 04:48:48 PM 37.4097 -75.6075 199° South 447 514 45,000  Level Washington Center
Sun 04:49:48 PM 37.3014 -75.6781 207° Southwest 435 501 45,000  Level Washington Center
Sun 04:50:49 PM 37.1989 -75.7483 209° Southwest 430 495 45,000  Level Washington Center
Sun 04:51:49 PM 37.0947 -75.8183 208° Southwest 430 495 45,000  Level Washington Center
Sun 04:52:50 PM 36.9903 -75.8883 208° Southwest 430 495 45,000  Level Washington Center
Sun 04:53:48 PM 36.8919 -75.9503 207° Southwest 443 510 45,000  Level Washington Center
Sun 04:54:48 PM 36.7811 -76.0042 201° Southwest 438 504 45,000  Level Washington Center
Sun 04:55:48 PM 36.6664 -76.0528 199° South 438 504 45,000  Level Washington Center
Sun 04:56:49 PM 36.5533 -76.0986 198° South 438 504 45,000  Level Washington Center
Sun 04:57:50 PM 36.4386 -76.1419 197° South 433 498 45,000  Level Washington Center
Sun 04:58:48 PM 36.3236 -76.1900 199° South 433 498 45,000  Level Washington Center
Sun 04:59:49 PM 36.2147 -76.2306 197° South 428 493 45,000  Level Washington Center
Sun 05:00:50 PM 36.0997 -76.2758 198° South 428 493 45,000  Level Washington Center
Sun 05:01:47 PM 35.9847 -76.3211 198° South 428 493 45,000  Level Washington Center
Sun 05:02:48 PM 35.8739 -76.3636 197° South 428 493 45,000  Level Washington Center
Sun 05:03:49 PM 35.7589 -76.4086 198° South 428 493 45,000  Level Washington Center
Sun 05:04:50 PM 35.6439 -76.4533 198° South 428 493 45,000  Level Washington Center
Sun 05:05:48 PM 35.5289 -76.4931 196° South 428 493 45,000  Level Washington Center
Sun 05:06:48 PM 35.4136 -76.5403 198° South 434 499 45,000  Level Washington Center
Sun 05:07:48 PM 35.2986 -76.5819 196° South 434 499 45,000  Level Washington Center
Sun 05:08:49 PM 35.1875 -76.6289 199° South 434 499 45,000  Level Washington Center
Sun 05:09:49 PM 35.0703 -76.6758 198° South 434 499 45,000  Level Washington Center
Sun 05:10:50 PM 34.9553 -76.7197 197° South 434 499 45,000  Level Washington Center
Sun 05:11:50 PM 34.8378 -76.7636 197° South 439 505 45,000  Level Washington Center
Sun 05:12:50 PM 34.7186 -76.8050 196° South 446 513 45,000 -51 Level Washington Center
Sun 05:13:48 PM 34.6033 -76.8511 198° South 446 513 44,900  Descending Washington Center
Sun 05:14:49 PM 34.4861 -76.8922 196° South 446 513 45,000 35 Climbing Washington Center
Sun 05:16:40 PM 34.2653 -76.9783 198° South 431 496 45,000  Level Jacksonville Center
Sun 05:17:40 PM 34.1597 -77.0458 208° Southwest 431 496 45,000  Level Jacksonville Center
Sun 05:18:40 PM 34.0544 -77.1131 208° Southwest 431 496 45,000  Level Jacksonville Center
Sun 05:19:40 PM 33.9469 -77.1828 208° Southwest 436 502 45,000  Level Jacksonville Center
Sun 05:20:40 PM 33.8436 -77.2494 208° Southwest 436 502 45,000  Level Jacksonville Center
Sun 05:21:40 PM 33.7361 -77.3186 208° Southwest 436 502 45,000  Level Jacksonville Center
Sun 05:22:40 PM 33.6286 -77.3878 208° Southwest 436 502 45,000  Level Jacksonville Center
Sun 05:23:40 PM 33.5183 -77.4444 203° Southwest 441 507 45,000  Level Jacksonville Center
Sun 05:24:40 PM 33.4036 -77.4939 200° South 441 507 45,000  Level Jacksonville Center
Sun 05:25:40 PM 33.2892 -77.5481 202° Southwest 441 507 45,000  Level Jacksonville Center
Sun 05:26:40 PM 33.1725 -77.5997 200° South 441 507 45,000  Level Jacksonville Center
Sun 05:27:40 PM 33.0575 -77.6486 200° South 441 507 45,000  Level Jacksonville Center
Sun 05:28:40 PM 32.9428 -77.6997 201° Southwest 441 507 45,000  Level Jacksonville Center
Sun 05:29:40 PM 32.8281 -77.7483 200° South 441 507 45,000  Level Jacksonville Center
Sun 05:30:40 PM 32.7111 -77.8019 201° Southwest 441 507 45,000  Level Jacksonville Center
Sun 05:31:40 PM 32.5983 -77.8503 200° South 441 507 45,000  Level Jacksonville Center
Sun 05:32:40 PM 32.4833 -77.8961 199° South 441 507 45,000  Level Jacksonville Center
Sun 05:33:40 PM 32.3661 -77.9442 199° South 441 507 45,000  Level Jacksonville Center
Sun 05:34:40 PM 32.2494 -77.9997 202° Southwest 446 513 45,000  Level Jacksonville Center
Sun 05:35:40 PM 32.1344 -78.0500 200° South 446 513 45,000  Level Jacksonville Center
Sun 05:36:40 PM 32.0153 -78.0978 199° South 446 513 45,000  Level Jacksonville Center
Sun 05:37:40 PM 31.8983 -78.1531 202° Southwest 451 519 45,000  Level Jacksonville Center
Sun 05:38:40 PM 31.7811 -78.1981 198° South 451 519 45,000  Level Jacksonville Center
Sun 05:39:40 PM 31.6619 -78.2506 201° Southwest 451 519 45,000  Level Jacksonville Center
Sun 05:40:40 PM 31.5472 -78.3097 204° Southwest 458 527 45,000  Level Jacksonville Center
Sun 05:41:40 PM 31.4300 -78.3594 200° South 458 527 45,000  Level Jacksonville Center
Sun 05:42:40 PM 31.3147 -78.4086 200° South 453 521 45,000  Level Jacksonville Center
Sun 05:43:40 PM 31.1914 -78.4608 200° South 459 528 45,000  Level Jacksonville Center
Sun 05:44:40 PM 31.0764 -78.5122 201° Southwest 459 528 45,000  Level Jacksonville Center
Sun 05:45:40 PM 30.9589 -78.5589 199° South 452 520 45,000  Level Jacksonville Center
Sun 05:46:40 PM 30.8375 -78.6103 200° South 457 526 45,000  Level Jacksonville Center
Sun 05:47:40 PM 30.7222 -78.6592 200° South 457 526 45,000  Level Jacksonville Center
Sun 05:48:51 PM 30.5808 -78.7153 199° South 451 519 45,000  Level Miami Center
Sun 05:49:51 PM 30.4575 -78.7517 194° South 451 519 45,000  Level Miami Center
Sun 05:50:51 PM 30.3300 -78.7806 191° South 457 526 45,000  Level Miami Center
Sun 05:51:51 PM 30.1981 -78.8117 192° South 464 534 45,000  Level Miami Center
Sun 05:52:51 PM 30.0747 -78.8431 192° South 470 541 45,000  Level Miami Center
Sun 05:53:51 PM 29.9428 -78.8836 195° South 461 531 45,000  Level Miami Center
Sun 05:54:51 PM 29.8194 -78.9147 192° South 461 531 45,000 -50 Level Miami Center
Sun 05:55:51 PM 29.6917 -78.9458 192° South 462 532 44,900 -750 Descending Miami Center
Sun 05:56:51 PM 29.5581 -78.9647 187° South 468 539 43,500 -1,350 Descending Miami Center
Sun 05:57:51 PM 29.4408 -78.9958 193° South 468 539 42,200 -1,350 Descending Miami Center
Sun 05:58:51 PM 29.3214 -79.0244 192° South 452 520 40,800 -1,550 Descending Miami Center
Sun 05:59:51 PM 29.2019 -79.0556 193° South 440 506 39,100 -1,700 Descending Miami Center
Sun 06:00:51 PM 29.0681 -79.0836 190° South 457 526 37,400 -1,750 Descending Miami Center
Sun 06:01:51 PM 28.9403 -79.1142 192° South 479 551 35,600 -1,550 Descending Miami Center
Sun 06:02:51 PM 28.8208 -79.1403 191° South 485 558 34,300 -1,500 Descending Miami Center
Sun 06:03:51 PM 28.6911 -79.1708 192° South 485 558 32,600 -1,700 Descending Miami Center
Sun 06:04:51 PM 28.5592 -79.2011 191° South 485 558 30,900 -1,750 Descending Miami Center
Sun 06:05:51 PM 28.4250 -79.2314 191° South 490 564 29,100 -1,750 Descending Miami Center
Sun 06:06:51 PM 28.2908 -79.2639 192° South 490 564 27,400 -1,700 Descending Miami Center
Sun 06:07:51 PM 28.1589 -79.2894 190° South 485 558 25,700 -1,600 Descending Miami Center
Sun 06:08:51 PM 28.0478 -79.3200 194° South 455 524 24,200 -1,650 Descending Miami Center
Sun 06:09:51 PM 27.9464 -79.3836 209° Southwest 414 476 22,400 -1,900 Descending Miami Center
Sun 06:10:51 PM 27.8411 -79.4469 208° Southwest 407 468 20,400 -1,850 Descending Miami Center
Sun 06:11:51 PM 27.7397 -79.5103 209° Southwest 412 474 18,700 -1,650 Descending Miami Center
Sun 06:12:51 PM 27.6403 -79.5714 209° Southwest 412 474 17,100 -1,650 Descending Miami Center
Sun 06:13:51 PM 27.5581 -79.6208 208° Southwest 391 450 15,400 -1,650 Descending Miami Center
Sun 06:14:51 PM 27.4650 -79.6794 209° Southwest 385 443 13,800 -1,700 Descending Miami Center
Sun 06:15:51 PM 27.3656 -79.7403 209° Southwest 378 435 12,000 -1,700 Descending Miami Center
Sun 06:16:51 PM 27.2769 -79.7942 208° Southwest 378 435 10,400 -1,550 Descending Miami Center
Sun 06:17:51 PM 27.1922 -79.8458 208° Southwest 373 429 8,900 -1,400 Descending Miami Center
Sun 06:18:51 PM 27.1225 -79.8883 208° Southwest 335 386 7,600 -1,350 Descending Miami Center
Sun 06:19:51 PM 27.0669 -79.9475 223° Southwest 306 352 6,200 -1,450 Descending Miami Center
Sun 06:20:51 PM 26.9969 -79.9969 212° Southwest 280 322 4,700 -1,100 Descending Miami Center
Sun 06:21:51 PM 26.9314 -80.0394 210° Southwest 280 322 4,000 -550 Descending Miami Center
Sun 06:22:51 PM 26.8656 -80.0819 210° Southwest 280 322 3,600 -750 Descending Miami Center
Sun 06:23:51 PM 26.8106 -80.1200 212° Southwest 273 314 2,500 -1,000 Descending Miami Center
Sun 06:24:51 PM 26.7469 -80.1553 206° Southwest 254 292 1,600 -900 Descending Miami Center
Sun 06:26:00 PM 26.6832 -80.0956 282° West  Level Estimated
Sun 06:33:00 PM 26.6832 -80.0956 110° East  Level Estimated
Sun 06:34:00 PM 26.6832 -80.0956 110° East  Level Estimated
Sun 06:35:00 PM 26.6832 -80.0956 110° East  Level Estimated

Login

Don't have an account? Register now (free) for customized features, flight alerts, and more!